createdAt,value
2023-02-25T00:01:08.380Z,3.91
2023-02-25T00:03:36.773Z,3.85
2023-02-25T00:06:07.385Z,3.73
2023-02-25T00:08:35.939Z,3.86
2023-02-25T00:11:05.928Z,3.91
2023-02-25T00:13:34.931Z,3.82
2023-02-25T00:16:04.466Z,3.94
2023-02-25T00:18:32.775Z,3.87
2023-02-25T00:21:01.367Z,3.83
2023-02-25T00:23:30.914Z,3.81
2023-02-25T00:26:02.223Z,3.93
2023-02-25T00:28:30.387Z,4.04
2023-02-25T00:30:58.562Z,4.04
2023-02-25T00:33:26.703Z,3.87
2023-02-25T00:35:54.694Z,3.80
2023-02-25T00:38:22.709Z,3.95
2023-02-25T00:40:51.996Z,3.79
2023-02-25T00:43:20.869Z,3.86
2023-02-25T00:45:48.801Z,3.75
2023-02-25T00:48:16.732Z,3.75
2023-02-25T00:50:44.624Z,3.89
2023-02-25T00:53:12.533Z,3.88
2023-02-25T00:55:40.524Z,3.78
2023-02-25T00:58:09.786Z,3.73
2023-02-25T01:00:50.149Z,3.93
2023-02-25T01:03:19.364Z,3.79
2023-02-25T01:05:49.574Z,3.88
2023-02-25T01:08:18.383Z,3.88
2023-02-25T01:10:46.825Z,3.82
2023-02-25T01:13:16.782Z,3.99
2023-02-25T01:15:44.794Z,3.74
2023-02-25T01:18:12.804Z,3.72
2023-02-25T01:20:41.639Z,3.74
2023-02-25T01:23:09.617Z,3.71
2023-02-25T01:25:40.690Z,3.82
2023-02-25T01:28:08.703Z,3.89
2023-02-25T01:30:39.243Z,3.92
2023-02-25T01:33:07.158Z,3.79
2023-02-25T01:35:37.230Z,3.91
2023-02-25T01:38:05.224Z,3.70
2023-02-25T01:40:33.203Z,3.78
2023-02-25T01:43:01.153Z,3.72
2023-02-25T01:45:31.659Z,3.78
2023-02-25T01:48:06.583Z,3.58
2023-02-25T01:50:39.298Z,3.71
2023-02-25T01:53:07.677Z,3.75
2023-02-25T01:55:35.673Z,3.79
2023-02-25T01:58:03.627Z,3.71
2023-02-25T02:00:33.158Z,3.59
2023-02-25T02:03:03.221Z,3.61
2023-02-25T02:05:41.787Z,3.47
2023-02-25T02:08:10.349Z,3.48
2023-02-25T02:10:38.248Z,3.67
2023-02-25T02:13:06.269Z,3.60
2023-02-25T02:15:37.753Z,3.67
2023-02-25T02:18:07.900Z,3.78
2023-02-25T02:20:45.187Z,3.62
2023-02-25T02:23:42.671Z,3.61
2023-02-25T02:26:58.505Z,3.44
2023-02-25T02:30:06.133Z,3.44
2023-02-25T02:32:37.775Z,3.48
2023-02-25T02:35:10.563Z,3.37
2023-02-25T02:37:43.553Z,3.41
2023-02-25T02:40:26.984Z,3.26
2023-02-25T02:43:05.235Z,3.31
2023-02-25T02:45:37.340Z,3.30
2023-02-25T02:48:08.723Z,3.04
2023-02-25T02:50:39.209Z,3.28
2023-02-25T02:53:11.797Z,3.19
2023-02-25T02:55:42.496Z,3.14
2023-02-25T02:58:12.148Z,3.29
2023-02-25T03:00:42.549Z,3.33
2023-02-25T03:03:15.554Z,3.37
2023-02-25T03:05:46.027Z,3.28
2023-02-25T03:08:18.079Z,3.36
2023-02-25T03:10:46.013Z,3.31
2023-02-25T03:13:14.076Z,3.26
2023-02-25T03:15:42.403Z,3.38
2023-02-25T03:18:17.063Z,3.45
2023-02-25T03:20:49.417Z,3.18
2023-02-25T03:23:19.599Z,3.35
2023-02-25T03:25:49.752Z,3.18
2023-02-25T03:28:27.847Z,3.30
2023-02-25T03:31:01.063Z,3.29
2023-02-25T03:33:34.098Z,3.32
2023-02-25T03:36:02.708Z,3.10
2023-02-25T03:38:33.103Z,3.29
2023-02-25T03:41:02.421Z,3.13
2023-02-25T03:43:33.322Z,3.18
2023-02-25T03:46:01.659Z,3.19
2023-02-25T03:48:31.267Z,2.81
2023-02-25T03:51:02.090Z,3.23
2023-02-25T03:53:33.874Z,2.86
2023-02-25T03:56:06.422Z,3.02
2023-02-25T03:58:34.934Z,2.98
2023-02-25T04:01:05.657Z,3.01
2023-02-25T04:03:35.008Z,2.91
2023-02-25T04:06:02.944Z,2.86
2023-02-25T04:08:30.876Z,2.69
2023-02-25T04:10:58.767Z,2.51
2023-02-25T04:13:26.686Z,2.62
2023-02-25T04:15:54.624Z,2.75
2023-02-25T04:18:24.907Z,2.73
2023-02-25T04:20:54.977Z,3.20
2023-02-25T04:23:22.951Z,3.12
2023-02-25T04:25:50.924Z,2.87
2023-02-25T04:28:18.897Z,2.82
2023-02-25T04:30:47.014Z,2.85
2023-02-25T04:33:15.295Z,2.88
2023-02-25T04:35:44.254Z,2.95
2023-02-25T04:38:13.513Z,2.74
2023-02-25T04:40:41.774Z,2.74
2023-02-25T04:43:10.046Z,2.82
2023-02-25T04:45:37.979Z,2.85
2023-02-25T04:48:06.705Z,2.83
2023-02-25T04:50:34.689Z,2.91
2023-02-25T04:53:03.280Z,2.88
2023-02-25T04:55:32.586Z,2.90
2023-02-25T04:58:00.519Z,2.79
2023-02-25T05:00:28.725Z,2.83
2023-02-25T05:02:58.548Z,3.00
2023-02-25T05:05:26.548Z,2.83
2023-02-25T05:07:54.480Z,3.13
2023-02-25T05:10:22.408Z,2.92
2023-02-25T05:12:51.685Z,2.96
2023-02-25T05:15:19.802Z,3.05
2023-02-25T05:17:48.689Z,2.89
2023-02-25T05:20:16.762Z,2.99
2023-02-25T05:22:44.662Z,2.92
2023-02-25T05:25:12.891Z,2.87
2023-02-25T05:27:40.829Z,2.91
2023-02-25T05:30:11.707Z,2.89
2023-02-25T05:32:40.069Z,2.94
2023-02-25T05:35:09.985Z,2.82
2023-02-25T05:37:38.291Z,3.00
2023-02-25T05:40:09.233Z,2.90
2023-02-25T05:42:37.962Z,2.89
2023-02-25T05:45:06.356Z,2.93
2023-02-25T05:47:35.853Z,3.01
2023-02-25T05:50:04.124Z,2.97
2023-02-25T05:52:32.018Z,2.89
2023-02-25T05:55:00.145Z,2.94
2023-02-25T05:57:28.029Z,2.88
2023-02-25T05:59:55.922Z,2.85
2023-02-25T06:02:23.928Z,2.81
2023-02-25T06:04:55.588Z,2.78
2023-02-25T06:07:23.473Z,2.72
2023-02-25T06:09:51.391Z,2.92
2023-02-25T06:12:19.281Z,2.87
2023-02-25T06:14:47.178Z,2.97
2023-02-25T06:17:15.125Z,2.79
2023-02-25T06:19:43.039Z,2.71
2023-02-25T06:22:12.355Z,2.89
2023-02-25T06:24:40.737Z,2.86
2023-02-25T06:27:08.639Z,2.80
2023-02-25T06:29:41.962Z,2.77
2023-02-25T06:32:10.206Z,2.55
2023-02-25T06:34:38.431Z,2.84
2023-02-25T06:37:06.419Z,2.89
2023-02-25T06:39:35.779Z,2.72
2023-02-25T06:42:03.660Z,2.66
2023-02-25T06:44:31.564Z,2.65
2023-02-25T06:46:59.509Z,2.54
2023-02-25T06:49:27.431Z,2.73
2023-02-25T06:51:55.328Z,2.72
2023-02-25T06:54:23.208Z,2.84
2023-02-25T06:56:53.319Z,2.87
2023-02-25T06:59:21.459Z,2.63
2023-02-25T07:01:49.430Z,2.71
2023-02-25T07:04:18.365Z,2.67
2023-02-25T07:06:46.476Z,2.58
2023-02-25T07:09:14.425Z,2.65
2023-02-25T07:11:42.317Z,2.79
2023-02-25T07:14:16.373Z,2.58
2023-02-25T07:16:44.313Z,2.80
2023-02-25T07:19:12.226Z,2.62
2023-02-25T07:21:40.495Z,2.82
2023-02-25T07:24:08.629Z,2.86
2023-02-25T07:26:36.524Z,2.66
2023-02-25T07:29:06.295Z,2.64
2023-02-25T07:31:35.668Z,2.75
2023-02-25T07:34:04.504Z,2.92
2023-02-25T07:36:33.791Z,2.83
2023-02-25T07:39:02.000Z,2.73
2023-02-25T07:41:30.318Z,2.92
2023-02-25T07:43:58.251Z,3.02
2023-02-25T07:46:26.745Z,2.98
2023-02-25T07:48:56.035Z,2.87
2023-02-25T07:51:25.558Z,2.89
2023-02-25T07:53:55.571Z,2.88
2023-02-25T07:56:25.058Z,2.83
2023-02-25T07:58:52.979Z,2.93
2023-02-25T08:01:23.595Z,2.92
2023-02-25T08:03:53.222Z,2.87
2023-02-25T08:06:22.928Z,2.99
2023-02-25T08:08:52.163Z,3.01
2023-02-25T08:11:21.308Z,2.92
2023-02-25T08:13:49.472Z,3.00
2023-02-25T08:16:19.474Z,2.94
2023-02-25T08:18:47.668Z,2.88
2023-02-25T08:21:18.066Z,2.89
2023-02-25T08:23:48.463Z,2.91
2023-02-25T08:26:17.560Z,2.97
2023-02-25T08:28:46.215Z,2.99
2023-02-25T08:31:15.113Z,3.16
2023-02-25T08:33:45.635Z,3.16
2023-02-25T08:36:16.245Z,2.78
2023-02-25T08:38:44.661Z,2.99
2023-02-25T08:41:14.303Z,3.09
2023-02-25T08:43:42.270Z,3.08
2023-02-25T08:46:10.678Z,3.01
2023-02-25T08:48:38.631Z,3.14
2023-02-25T08:51:08.606Z,3.06
2023-02-25T08:53:37.173Z,3.03
2023-02-25T08:56:05.601Z,2.88
2023-02-25T08:58:34.909Z,3.14
2023-02-25T09:01:03.959Z,2.96
2023-02-25T09:03:31.862Z,2.93
2023-02-25T09:05:59.786Z,3.14
2023-02-25T09:08:28.319Z,2.96
2023-02-25T09:10:56.301Z,3.03
2023-02-25T09:13:24.270Z,3.04
2023-02-25T09:15:58.654Z,3.04
2023-02-25T09:18:26.985Z,3.02
2023-02-25T09:20:54.884Z,3.22
2023-02-25T09:23:22.796Z,3.19
2023-02-25T09:25:50.870Z,3.13
2023-02-25T09:28:18.908Z,3.26
2023-02-25T09:30:47.122Z,3.22
2023-02-25T09:33:16.433Z,3.18
2023-02-25T09:35:45.312Z,3.15
2023-02-25T09:38:13.513Z,3.23
2023-02-25T09:40:42.547Z,3.23
2023-02-25T09:43:20.504Z,3.34
2023-02-25T09:45:49.810Z,3.27
2023-02-25T09:48:25.901Z,3.13
2023-02-25T09:50:58.168Z,3.34
2023-02-25T09:53:30.640Z,3.41
2023-02-25T09:55:59.197Z,3.38
2023-02-25T09:58:31.698Z,3.46
2023-02-25T10:01:04.632Z,3.45
2023-02-25T10:03:46.208Z,3.51
2023-02-25T10:06:19.475Z,3.39
2023-02-25T10:08:53.869Z,3.19
2023-02-25T10:11:30.792Z,3.35
2023-02-25T10:14:06.105Z,3.64
2023-02-25T10:16:42.068Z,3.86
2023-02-25T10:19:21.288Z,3.90
2023-02-25T10:21:58.549Z,3.73
2023-02-25T10:24:31.695Z,3.86
2023-02-25T10:27:11.332Z,3.80
2023-02-25T10:29:41.991Z,3.91
2023-02-25T10:32:18.852Z,4.01
2023-02-25T10:34:48.452Z,3.93
2023-02-25T10:37:21.569Z,3.95
2023-02-25T10:39:50.856Z,3.95
2023-02-25T10:42:18.746Z,3.98
2023-02-25T10:44:46.896Z,3.92
2023-02-25T10:47:18.216Z,3.79
2023-02-25T10:50:18.741Z,3.48
2023-02-25T10:52:56.804Z,3.87
2023-02-25T10:55:32.665Z,3.77
2023-02-25T10:58:01.047Z,3.85
2023-02-25T11:00:30.952Z,3.87
2023-02-25T11:03:01.486Z,3.61
2023-02-25T11:05:36.178Z,3.53
2023-02-25T11:08:08.121Z,3.53
2023-02-25T11:10:36.173Z,3.70
2023-02-25T11:13:06.071Z,3.95
2023-02-25T11:15:51.258Z,3.94
2023-02-25T11:18:22.554Z,4.35
2023-02-25T11:20:52.597Z,4.28
2023-02-25T11:23:26.530Z,4.33
2023-02-25T11:25:55.846Z,4.32
2023-02-25T11:28:30.048Z,4.00
2023-02-25T11:31:06.749Z,4.27
2023-02-25T11:33:36.003Z,4.36
2023-02-25T11:36:04.880Z,4.30
2023-02-25T11:38:36.507Z,4.54
2023-02-25T11:41:05.164Z,4.42
2023-02-25T11:43:38.243Z,4.50
2023-02-25T11:46:08.845Z,4.49
2023-02-25T11:48:48.236Z,4.77
2023-02-25T11:51:22.254Z,4.79
2023-02-25T11:54:10.206Z,4.81
2023-02-25T11:56:39.893Z,4.86
2023-02-25T11:59:19.812Z,5.01
2023-02-25T12:02:05.486Z,5.07
2023-02-25T12:05:01.032Z,5.26
2023-02-25T12:08:13.326Z,5.40
2023-02-25T12:10:58.493Z,5.44
2023-02-25T12:13:39.313Z,5.09
2023-02-25T12:16:49.219Z,5.39
2023-02-25T12:19:54.967Z,5.66
2023-02-25T12:23:10.744Z,5.83
2023-02-25T12:25:44.787Z,5.96
2023-02-25T12:28:55.557Z,5.98
2023-02-25T12:31:54.902Z,6.12
2023-02-25T12:34:34.972Z,6.09
2023-02-25T12:37:14.790Z,6.01
2023-02-25T12:39:50.703Z,5.57
2023-02-25T12:42:30.948Z,5.50
2023-02-25T12:45:17.612Z,5.77
2023-02-25T12:47:58.385Z,5.93
2023-02-25T12:50:44.237Z,6.07
2023-02-25T12:53:25.452Z,6.16
2023-02-25T12:56:09.304Z,6.36
2023-02-25T12:58:43.625Z,6.54
2023-02-25T13:01:23.895Z,6.57
2023-02-25T13:04:05.834Z,6.85
2023-02-25T13:06:53.225Z,6.29
2023-02-25T13:09:36.810Z,6.04
2023-02-25T13:12:21.028Z,6.34
2023-02-25T13:15:00.276Z,6.67
2023-02-25T13:17:49.156Z,6.78
2023-02-25T13:20:38.017Z,6.51
2023-02-25T13:23:21.153Z,6.50
2023-02-25T13:25:58.863Z,6.70
2023-02-25T13:28:37.440Z,6.72
2023-02-25T13:31:08.483Z,6.45
2023-02-25T13:34:05.867Z,6.46
2023-02-25T13:37:06.435Z,6.56
2023-02-25T13:39:48.030Z,6.94
2023-02-25T13:42:36.309Z,6.83
2023-02-25T13:45:45.582Z,6.49
2023-02-25T13:48:35.386Z,6.47
2023-02-25T13:51:13.024Z,6.50
2023-02-25T13:53:54.135Z,6.36
2023-02-25T13:56:47.189Z,6.32
2023-02-25T13:59:23.528Z,6.66
2023-02-25T14:02:01.008Z,6.64
2023-02-25T14:05:03.689Z,6.34
2023-02-25T14:07:47.017Z,6.34
2023-02-25T14:10:33.188Z,6.40
2023-02-25T14:13:22.149Z,6.42
2023-02-25T14:16:00.442Z,6.32
2023-02-25T14:18:44.555Z,5.98
2023-02-25T14:21:33.661Z,6.02
2023-02-25T14:24:06.259Z,6.21
2023-02-25T14:26:39.852Z,6.36
2023-02-25T14:29:19.839Z,6.41
2023-02-25T14:32:11.678Z,6.75
2023-02-25T14:34:50.592Z,7.05
2023-02-25T14:37:29.876Z,7.14
2023-02-25T14:40:19.550Z,7.14
2023-02-25T14:43:02.215Z,6.91
2023-02-25T14:45:34.176Z,6.51
2023-02-25T14:48:05.444Z,6.29
2023-02-25T14:50:39.199Z,5.90
2023-02-25T14:53:20.294Z,6.45
2023-02-25T14:56:01.844Z,6.45
2023-02-25T14:58:43.568Z,6.90
2023-02-25T15:01:41.241Z,6.64
2023-02-25T15:04:40.836Z,6.74
2023-02-25T15:07:53.350Z,6.80
2023-02-25T15:10:35.020Z,6.65
2023-02-25T15:13:49.616Z,6.38
2023-02-25T15:16:34.050Z,6.42
2023-02-25T15:19:35.419Z,6.34
2023-02-25T15:22:22.431Z,5.85
2023-02-25T15:24:52.113Z,6.27
2023-02-25T15:27:48.502Z,6.14
2023-02-25T15:30:19.915Z,6.23
2023-02-25T15:33:07.714Z,6.62
2023-02-25T15:35:57.450Z,6.58
2023-02-25T15:38:41.458Z,6.59
2023-02-25T15:41:44.830Z,6.58
2023-02-25T15:44:37.341Z,6.74
2023-02-25T15:47:28.720Z,6.14
2023-02-25T15:50:00.152Z,6.18
2023-02-25T15:52:59.035Z,6.24
2023-02-25T15:55:39.413Z,5.98
2023-02-25T15:58:44.894Z,5.80
2023-02-25T16:01:28.674Z,5.65
2023-02-25T16:03:58.094Z,5.58
2023-02-25T16:06:32.226Z,5.52
2023-02-25T16:09:07.245Z,5.67
2023-02-25T16:11:38.192Z,5.42
2023-02-25T16:14:09.097Z,5.48
2023-02-25T16:16:39.861Z,5.35
2023-02-25T16:19:12.155Z,5.28
2023-02-25T16:21:42.628Z,5.33
2023-02-25T16:24:11.699Z,5.36
2023-02-25T16:26:45.267Z,5.30
2023-02-25T16:29:24.781Z,5.31
2023-02-25T16:31:57.159Z,5.11
2023-02-25T16:34:29.537Z,4.79
2023-02-25T16:37:05.759Z,4.91
2023-02-25T16:39:33.986Z,5.01
2023-02-25T16:42:04.091Z,4.87
2023-02-25T16:44:36.497Z,4.86
2023-02-25T16:47:07.241Z,4.78
2023-02-25T16:49:39.937Z,4.76
2023-02-25T16:52:08.747Z,4.48
2023-02-25T16:54:38.978Z,4.35
2023-02-25T16:57:09.488Z,4.56
2023-02-25T16:59:39.338Z,4.52
2023-02-25T17:02:23.913Z,4.37
2023-02-25T17:04:55.089Z,4.28
2023-02-25T17:07:25.550Z,4.14
2023-02-25T17:09:55.101Z,3.68
2023-02-25T17:12:30.512Z,3.52
2023-02-25T17:15:00.319Z,3.76
2023-02-25T17:17:30.257Z,3.79
2023-02-25T17:20:00.547Z,3.87
2023-02-25T17:22:28.820Z,3.80
2023-02-25T17:24:58.313Z,3.45
2023-02-25T17:27:26.885Z,3.76
2023-02-25T17:29:55.135Z,3.66
2023-02-25T17:32:25.416Z,3.03
2023-02-25T17:34:55.199Z,3.30
2023-02-25T17:37:26.153Z,3.42
2023-02-25T17:39:54.731Z,3.49
2023-02-25T17:42:33.302Z,3.17
2023-02-25T17:45:02.756Z,3.19
2023-02-25T17:47:32.338Z,3.03
2023-02-25T17:50:03.750Z,3.04
2023-02-25T17:52:33.793Z,3.13
2023-02-25T17:55:04.728Z,2.81
2023-02-25T17:57:33.975Z,2.49
2023-02-25T18:00:14.217Z,2.77
2023-02-25T18:02:44.119Z,2.96
2023-02-25T18:05:24.570Z,2.73
2023-02-25T18:08:19.271Z,2.93
2023-02-25T18:10:54.958Z,2.70
2023-02-25T18:13:35.260Z,2.53
2023-02-25T18:16:15.338Z,3.06
2023-02-25T18:18:43.341Z,3.22
2023-02-25T18:21:12.124Z,2.90
2023-02-25T18:23:41.675Z,2.92
2023-02-25T18:26:14.786Z,2.93
2023-02-25T18:28:42.722Z,2.92
2023-02-25T18:31:10.731Z,2.98
2023-02-25T18:33:39.159Z,2.87
2023-02-25T18:36:08.176Z,2.79
2023-02-25T18:38:37.731Z,2.44
2023-02-25T18:41:07.338Z,2.42
2023-02-25T18:43:40.069Z,2.51
2023-02-25T18:46:07.976Z,2.74
2023-02-25T18:48:36.988Z,2.47
2023-02-25T18:51:06.435Z,2.34
2023-02-25T18:53:34.411Z,2.11
2023-02-25T18:56:02.332Z,2.19
2023-02-25T18:58:31.623Z,2.30
2023-02-25T19:01:00.646Z,2.38
2023-02-25T19:03:31.059Z,2.36
2023-02-25T19:05:59.044Z,2.20
2023-02-25T19:08:26.969Z,2.19
2023-02-25T19:10:55.294Z,1.97
2023-02-25T19:13:26.896Z,2.03
2023-02-25T19:15:56.339Z,2.00
2023-02-25T19:18:24.506Z,1.77
2023-02-25T19:20:52.424Z,2.15
2023-02-25T19:23:20.709Z,1.94
2023-02-25T19:25:50.550Z,1.64
2023-02-25T19:28:18.437Z,1.88
2023-02-25T19:30:46.783Z,1.76
2023-02-25T19:33:16.239Z,1.55
2023-02-25T19:35:44.752Z,1.45
2023-02-25T19:38:16.185Z,1.47
2023-02-25T19:40:45.168Z,1.61
2023-02-25T19:43:13.618Z,1.56
2023-02-25T19:45:42.063Z,1.68
2023-02-25T19:48:10.723Z,1.59
2023-02-25T19:50:41.335Z,1.41
2023-02-25T19:53:09.633Z,1.46
2023-02-25T19:55:39.061Z,1.37
2023-02-25T19:58:10.085Z,1.49
2023-02-25T20:00:40.384Z,1.44
2023-02-25T20:03:08.335Z,1.29
2023-02-25T20:05:36.493Z,1.30
2023-02-25T20:08:06.263Z,1.39
2023-02-25T20:10:34.159Z,1.42
2023-02-25T20:13:02.336Z,1.32
2023-02-25T20:15:30.375Z,1.30
2023-02-25T20:17:58.450Z,1.39
2023-02-25T20:20:26.414Z,1.28
2023-02-25T20:23:05.004Z,1.29
2023-02-25T20:25:36.747Z,1.48
2023-02-25T20:28:24.360Z,1.34
2023-02-25T20:30:52.335Z,1.28
2023-02-25T20:33:20.227Z,1.06
2023-02-25T20:35:48.370Z,1.38
2023-02-25T20:38:22.140Z,1.63
2023-02-25T20:40:51.824Z,1.75
2023-02-25T20:43:19.998Z,1.88
2023-02-25T20:45:48.249Z,1.66
2023-02-25T20:48:27.489Z,1.56
2023-02-25T20:50:56.143Z,1.65
2023-02-25T20:53:24.825Z,1.76
2023-02-25T20:55:55.198Z,1.77
2023-02-25T20:58:23.125Z,1.69
2023-02-25T21:00:51.089Z,1.74
2023-02-25T21:03:18.995Z,1.63
2023-02-25T21:05:46.910Z,1.60
2023-02-25T21:08:14.988Z,1.61
2023-02-25T21:10:43.399Z,1.40
2023-02-25T21:13:15.339Z,1.46
2023-02-25T21:15:43.753Z,1.57
2023-02-25T21:18:11.691Z,1.53
2023-02-25T21:20:39.724Z,1.57
2023-02-25T21:23:08.981Z,1.60
2023-02-25T21:25:38.305Z,1.42
2023-02-25T21:28:06.200Z,1.53
2023-02-25T21:30:35.617Z,1.42
2023-02-25T21:33:03.532Z,1.16
2023-02-25T21:35:31.413Z,1.35
2023-02-25T21:37:59.357Z,1.18
2023-02-25T21:40:27.245Z,1.34
2023-02-25T21:42:55.527Z,1.15
2023-02-25T21:45:23.457Z,1.50
2023-02-25T21:47:52.755Z,1.40
2023-02-25T21:50:20.811Z,1.21
2023-02-25T21:52:48.861Z,1.37
2023-02-25T21:55:16.967Z,1.20
2023-02-25T21:57:44.916Z,1.18
2023-02-25T22:00:14.199Z,1.38
2023-02-25T22:02:42.152Z,1.33
2023-02-25T22:05:11.753Z,1.47
2023-02-25T22:07:39.683Z,1.35
2023-02-25T22:10:08.895Z,1.32
2023-02-25T22:12:36.835Z,1.36
2023-02-25T22:15:05.371Z,1.45
2023-02-25T22:17:33.268Z,1.45
2023-02-25T22:20:01.231Z,1.52
2023-02-25T22:22:30.592Z,1.39
2023-02-25T22:24:58.493Z,1.40
2023-02-25T22:27:26.453Z,1.23
2023-02-25T22:29:54.411Z,1.23
2023-02-25T22:32:22.361Z,1.38
2023-02-25T22:34:50.277Z,1.27
2023-02-25T22:37:18.212Z,1.23
2023-02-25T22:39:47.501Z,1.09
2023-02-25T22:42:15.397Z,0.92
2023-02-25T22:44:43.292Z,1.24
2023-02-25T22:47:11.252Z,1.13
2023-02-25T22:49:39.141Z,1.15
2023-02-25T22:52:07.091Z,1.11
2023-02-25T22:54:35.048Z,0.98
2023-02-25T22:57:04.392Z,1.04
2023-02-25T22:59:32.320Z,1.18
2023-02-25T23:02:00.329Z,0.90
2023-02-25T23:04:28.398Z,1.07
2023-02-25T23:06:57.213Z,0.90
2023-02-25T23:09:25.139Z,1.06
2023-02-25T23:11:53.108Z,1.01
2023-02-25T23:14:22.372Z,0.98
2023-02-25T23:16:51.168Z,0.94
2023-02-25T23:19:19.766Z,1.08
2023-02-25T23:21:47.878Z,1.09
2023-02-25T23:24:18.628Z,1.01
2023-02-25T23:26:49.132Z,0.96
2023-02-25T23:29:17.072Z,0.87
2023-02-25T23:31:48.305Z,1.03
2023-02-25T23:34:19.346Z,0.89
2023-02-25T23:36:47.545Z,0.90
2023-02-25T23:39:16.237Z,0.92
2023-02-25T23:41:44.433Z,0.81
2023-02-25T23:44:13.234Z,0.95
2023-02-25T23:46:43.046Z,0.93
2023-02-25T23:49:13.867Z,0.79
2023-02-25T23:51:43.324Z,0.94
2023-02-25T23:54:14.468Z,0.73
2023-02-25T23:56:42.390Z,0.54
2023-02-25T23:59:10.532Z,0.88
